Mindoro Star — V7RE6 — position and weather

sailwx.info

Track history (hours):
 
Tides and Currents Weather Stations Pressure Air Temp Water Temp Dewpoint Dewpoint Depression Visibility Wind Speed Wind Dir Waves Ship Positions

Mindoro Star

Last reported at 2017-Mar-10 13:20 UTC. Time now 2017-Mar-25 02:03 UTC.
Position N 30°27' W 116°58'.
Warning: this ship's position is 14 days out of date.

Length 238 m; draft 8.2 m.

Type: Tanker. MMSI: 538003490.

Date/timePositionNaut miles runAvg speedWind from/ knotsBaromVisibWave heightAir tempDewpointWater temp
2017-Mar-10 13:20N 30°27' W 116°58'1113.7
2017-Mar-10 12:31N 30°38' W 117°01'2713.4
2017-Mar-10 10:28N 31°04' W 117°09'1213.4
2017-Mar-10 09:33N 31°16' W 117°13'1313.5
2017-Mar-10 08:34N 31°29' W 117°18'1413.6
2017-Mar-10 07:33N 31°42' W 117°22'1413.6
2017-Mar-10 06:33N 31°55' W 117°26'1313.3
2017-Mar-10 05:33N 32°08' W 117°30'1313.1
2017-Mar-10 04:33N 32°20' W 117°35'1211.7
2017-Mar-10 03:34N 32°32' W 117°38'1313.0
2017-Mar-10 02:34N 32°44' W 117°45'1313.3
2017-Mar-10 01:33N 32°54' W 117°54'1313.2
2017-Mar-10 00:33N 33°06' W 118°02'1313.1
2017-Mar-09 23:34N 33°19' W 118°06'1212.0
2017-Mar-09 22:33N 33°30' W 118°11'1010.2
2017-Mar-09 21:33N 33°36' W 118°21'1212.0
2017-Mar-09 20:33N 33°42' W 118°33'9 8.6
2017-Mar-09 19:33N 33°50' W 118°32'6 1.9
2017-Mar-09 16:26N 33°55' W 118°27'0 0.0
2017-Mar-09 15:32N 33°55' W 118°27'0 0.0
2017-Mar-09 14:32N 33°55' W 118°27'0 0.0
2017-Mar-09 13:32N 33°55' W 118°27'0 0.0
2017-Mar-09 12:29N 33°55' W 118°27'0 0.0
2017-Mar-09 11:29N 33°55' W 118°27'0 0.0
2017-Mar-09 10:32N 33°55' W 118°27'0 0.0
2017-Mar-09 09:32N 33°55' W 118°27'0 0.0
2017-Mar-08 20:32N 33°55' W 118°27'0 0.0
2017-Mar-08 19:32N 33°55' W 118°27'0 0.0
2017-Mar-08 18:32N 33°55' W 118°27'0 0.0
2017-Mar-08 17:26N 33°55' W 118°27'0 0.0
2017-Mar-08 16:33N 33°55' W 118°27'2 1.7
2017-Mar-08 15:31N 33°54' W 118°29'0 0.3
2017-Mar-08 14:29N 33°53' W 118°29'0 0.0
2017-Mar-08 13:11N 33°53' W 118°29'0 0.1
2017-Mar-08 12:29N 33°53' W 118°29'0 0.0
2017-Mar-08 11:11N 33°53' W 118°29'0 0.0
2017-Mar-08 10:05N 33°53' W 118°29'0 0.1
2017-Mar-08 09:29N 33°53' W 118°29'1 0.2
2017-Mar-08 03:33N 33°52' W 118°30'8 8.1
2017-Mar-08 02:34N 33°45' W 118°34'1212.2
2017-Mar-08 01:34N 33°39' W 118°22'9 9.5
2017-Mar-08 00:34N 33°43' W 118°11'3 2.5
2017-Mar-07 23:31N 33°44' W 118°09'0 0.0
2017-Mar-07 22:28N 33°44' W 118°09'0 0.0
2017-Mar-07 21:31N 33°44' W 118°09'0 0.0
2017-Mar-07 20:31N 33°44' W 118°09'0 0.0
2017-Mar-07 19:31N 33°44' W 118°09'0 0.1
2017-Mar-07 18:31N 33°44' W 118°09'0 0.0
2017-Mar-07 17:31N 33°44' W 118°09'0 0.0
2017-Mar-07 16:31N 33°44' W 118°09'0 0.0
2017-Mar-07 15:31N 33°44' W 118°09'0 0.1
2017-Mar-07 14:28N 33°44' W 118°09'0 0.0
2017-Mar-07 13:25N 33°44' W 118°09'0 0.1
2017-Mar-07 12:31N 33°44' W 118°09'0 0.0
2017-Mar-07 11:31N 33°44' W 118°09'0 0.0
2017-Mar-07 10:07N 33°44' W 118°09'0 0.0
2017-Mar-07 09:28N 33°44' W 118°09'0 0.1
2017-Mar-07 08:28N 33°44' W 118°09'0 0.1
2017-Mar-07 07:31N 33°44' W 118°09'0 0.1
2017-Mar-07 06:28N 33°44' W 118°09'0 0.0
2017-Mar-07 05:28N 33°44' W 118°09'0 0.0
2017-Mar-07 04:16N 33°44' W 118°09'0 0.0
2017-Mar-07 03:31N 33°44' W 118°09'0 0.0
2017-Mar-07 02:31N 33°44' W 118°09'0 0.0
2017-Mar-07 01:31N 33°44' W 118°09'0 0.0
2017-Mar-07 00:22N 33°44' W 118°09'0 0.0
2017-Mar-06 19:22N 33°44' W 118°09'0 0.0
2017-Mar-06 16:10N 33°44' W 118°09'0 0.0
2017-Mar-06 11:28N 33°44' W 118°09'0 0.0
2017-Mar-06 06:28N 33°44' W 118°09'0 0.0
2017-Mar-06 05:22N 33°44' W 118°09'0 0.0
2017-Mar-06 02:10N 33°44' W 118°09'0 0.0
2017-Mar-06 01:16N 33°44' W 118°09'0 0.0
2017-Mar-06 00:28N 33°44' W 118°09'0 0.0
2017-Mar-05 23:10N 33°44' W 118°09'0 0.1
2017-Mar-05 22:28N 33°44' W 118°09'0 0.0
2017-Mar-05 18:22N 33°44' W 118°09'0 0.0
2017-Mar-05 16:28N 33°44' W 118°09'0 0.0
2017-Mar-05 15:28N 33°44' W 118°09'0 0.0
2017-Mar-05 14:04N 33°44' W 118°09'0 0.0
2017-Mar-05 13:22N 33°44' W 118°09'0 0.1
2017-Mar-05 12:28N 33°44' W 118°09'0 0.0
2017-Mar-05 10:22N 33°44' W 118°09'1 1.1
2017-Mar-05 09:34N 33°44' W 118°10'7 6.5
2017-Mar-05 08:32N 33°38' W 118°14'10 9.3
2017-Mar-05 07:29N 33°38' W 118°25'1111.9
2017-Mar-05 06:33N 33°44' W 118°36'1211.8
2017-Mar-05 05:33N 33°54' W 118°28'1 1.4
2017-Mar-05 04:33N 33°55' W 118°27'0 0.0
2017-Mar-05 03:33N 33°55' W 118°27'0 0.0
2017-Mar-05 02:33N 33°55' W 118°27'0 0.0
2017-Mar-05 01:21N 33°55' W 118°27'0 0.0
2017-Mar-05 00:33N 33°55' W 118°27'0 0.0
2017-Mar-04 23:33N 33°55' W 118°27'0 0.0
2017-Mar-04 22:03N 33°55' W 118°27'0 0.0
2017-Mar-04 21:33N 33°55' W 118°27'0 0.0
2017-Mar-04 20:33N 33°55' W 118°27'0 0.0
2017-Mar-04 19:33N 33°55' W 118°27'0 0.0
2017-Mar-04 18:33N 33°55' W 118°27'0 0.0
2017-Mar-04 17:33N 33°55' W 118°27'0 0.0
2017-Mar-04 16:33N 33°55' W 118°27'0 0.0
2017-Mar-04 14:27N 33°55' W 118°27'0 0.0
2017-Mar-04 13:27N 33°55' W 118°27'0 0.0
2017-Mar-04 12:33N 33°55' W 118°27'0 0.0
2017-Mar-04 11:33N 33°55' W 118°27'0 0.0
2017-Mar-04 10:33N 33°55' W 118°27'0 0.0
2017-Mar-04 08:33N 33°55' W 118°27'3 0.3
2017-Mar-03 19:17N 33°52' W 118°30'4 4.9
2017-Mar-03 18:33N 33°49' W 118°30'10 9.8
2017-Mar-03 17:34N 33°40' W 118°24'1211.6
2017-Mar-03 16:33N 33°35' W 118°11'1111.4
2017-Mar-03 15:33N 33°25' W 118°05'1212.2
2017-Mar-03 14:34N 33°13' W 118°01'1212.3
2017-Mar-03 13:33N 33°01' W 117°58'1211.8
2017-Mar-03 12:33N 32°51' W 117°51'1211.8
2017-Mar-03 11:33N 32°41' W 117°43'1211.8
2017-Mar-03 10:33N 32°31' W 117°36'1212.1
2017-Mar-03 09:33N 32°19' W 117°32'1110.8
2017-Mar-03 08:33N 32°09' W 117°28'  
Track history (hours):
 
Tides and Currents Weather Stations Pressure Air Temp Water Temp Dewpoint Dewpoint Depression Visibility Wind Speed Wind Dir Waves Ship Positions

Mindoro Star

Last reported at 2017-Mar-10 13:20 UTC. Time now 2017-Mar-25 02:03 UTC.
Position N 30°27' W 116°58'.
Warning: this ship's position is 14 days out of date.

Length 238 m; draft 8.2 m.

Type: Tanker. MMSI: 538003490.

Date/timePositionNaut miles runAvg speedWind from/ knotsBaromVisibWave heightAir tempDewpointWater temp
2017-Mar-10 13:20N 30°27' W 116°58'1113.7
2017-Mar-10 12:31N 30°38' W 117°01'2713.4
2017-Mar-10 10:28N 31°04' W 117°09'1213.4
2017-Mar-10 09:33N 31°16' W 117°13'1313.5
2017-Mar-10 08:34N 31°29' W 117°18'1413.6
2017-Mar-10 07:33N 31°42' W 117°22'1413.6
2017-Mar-10 06:33N 31°55' W 117°26'1313.3
2017-Mar-10 05:33N 32°08' W 117°30'1313.1
2017-Mar-10 04:33N 32°20' W 117°35'1211.7
2017-Mar-10 03:34N 32°32' W 117°38'1313.0
2017-Mar-10 02:34N 32°44' W 117°45'1313.3
2017-Mar-10 01:33N 32°54' W 117°54'1313.2
2017-Mar-10 00:33N 33°06' W 118°02'1313.1
2017-Mar-09 23:34N 33°19' W 118°06'1212.0
2017-Mar-09 22:33N 33°30' W 118°11'1010.2
2017-Mar-09 21:33N 33°36' W 118°21'1212.0
2017-Mar-09 20:33N 33°42' W 118°33'9 8.6
2017-Mar-09 19:33N 33°50' W 118°32'6 1.9
2017-Mar-09 16:26N 33°55' W 118°27'0 0.0
2017-Mar-09 15:32N 33°55' W 118°27'0 0.0
2017-Mar-09 14:32N 33°55' W 118°27'0 0.0
2017-Mar-09 13:32N 33°55' W 118°27'0 0.0
2017-Mar-09 12:29N 33°55' W 118°27'0 0.0
2017-Mar-09 11:29N 33°55' W 118°27'0 0.0
2017-Mar-09 10:32N 33°55' W 118°27'0 0.0
2017-Mar-09 09:32N 33°55' W 118°27'0 0.0
2017-Mar-08 20:32N 33°55' W 118°27'0 0.0
2017-Mar-08 19:32N 33°55' W 118°27'0 0.0
2017-Mar-08 18:32N 33°55' W 118°27'0 0.0
2017-Mar-08 17:26N 33°55' W 118°27'0 0.0
2017-Mar-08 16:33N 33°55' W 118°27'2 1.7
2017-Mar-08 15:31N 33°54' W 118°29'0 0.3
2017-Mar-08 14:29N 33°53' W 118°29'0 0.0
2017-Mar-08 13:11N 33°53' W 118°29'0 0.1
2017-Mar-08 12:29N 33°53' W 118°29'0 0.0
2017-Mar-08 11:11N 33°53' W 118°29'0 0.0
2017-Mar-08 10:05N 33°53' W 118°29'0 0.1
2017-Mar-08 09:29N 33°53' W 118°29'1 0.2
2017-Mar-08 03:33N 33°52' W 118°30'8 8.1
2017-Mar-08 02:34N 33°45' W 118°34'1212.2
2017-Mar-08 01:34N 33°39' W 118°22'9 9.5
2017-Mar-08 00:34N 33°43' W 118°11'3 2.5
2017-Mar-07 23:31N 33°44' W 118°09'0 0.0
2017-Mar-07 22:28N 33°44' W 118°09'0 0.0
2017-Mar-07 21:31N 33°44' W 118°09'0 0.0
2017-Mar-07 20:31N 33°44' W 118°09'0 0.0
2017-Mar-07 19:31N 33°44' W 118°09'0 0.1
2017-Mar-07 18:31N 33°44' W 118°09'0 0.0
2017-Mar-07 17:31N 33°44' W 118°09'0 0.0
2017-Mar-07 16:31N 33°44' W 118°09'0 0.0
2017-Mar-07 15:31N 33°44' W 118°09'0 0.1
2017-Mar-07 14:28N 33°44' W 118°09'0 0.0
2017-Mar-07 13:25N 33°44' W 118°09'0 0.1
2017-Mar-07 12:31N 33°44' W 118°09'0 0.0
2017-Mar-07 11:31N 33°44' W 118°09'0 0.0
2017-Mar-07 10:07N 33°44' W 118°09'0 0.0
2017-Mar-07 09:28N 33°44' W 118°09'0 0.1
2017-Mar-07 08:28N 33°44' W 118°09'0 0.1
2017-Mar-07 07:31N 33°44' W 118°09'0 0.1
2017-Mar-07 06:28N 33°44' W 118°09'0 0.0
2017-Mar-07 05:28N 33°44' W 118°09'0 0.0
2017-Mar-07 04:16N 33°44' W 118°09'0 0.0
2017-Mar-07 03:31N 33°44' W 118°09'0 0.0
2017-Mar-07 02:31N 33°44' W 118°09'0 0.0
2017-Mar-07 01:31N 33°44' W 118°09'0 0.0
2017-Mar-07 00:22N 33°44' W 118°09'0 0.0
2017-Mar-06 19:22N 33°44' W 118°09'0 0.0
2017-Mar-06 16:10N 33°44' W 118°09'0 0.0
2017-Mar-06 11:28N 33°44' W 118°09'0 0.0
2017-Mar-06 06:28N 33°44' W 118°09'0 0.0
2017-Mar-06 05:22N 33°44' W 118°09'0 0.0
2017-Mar-06 02:10N 33°44' W 118°09'0 0.0
2017-Mar-06 01:16N 33°44' W 118°09'0 0.0
2017-Mar-06 00:28N 33°44' W 118°09'0 0.0
2017-Mar-05 23:10N 33°44' W 118°09'0 0.1
2017-Mar-05 22:28N 33°44' W 118°09'0 0.0
2017-Mar-05 18:22N 33°44' W 118°09'0 0.0
2017-Mar-05 16:28N 33°44' W 118°09'0 0.0
2017-Mar-05 15:28N 33°44' W 118°09'0 0.0
2017-Mar-05 14:04N 33°44' W 118°09'0 0.0
2017-Mar-05 13:22N 33°44' W 118°09'0 0.1
2017-Mar-05 12:28N 33°44' W 118°09'0 0.0
2017-Mar-05 10:22N 33°44' W 118°09'1 1.1
2017-Mar-05 09:34N 33°44' W 118°10'7 6.5
2017-Mar-05 08:32N 33°38' W 118°14'10 9.3
2017-Mar-05 07:29N 33°38' W 118°25'1111.9
2017-Mar-05 06:33N 33°44' W 118°36'1211.8
2017-Mar-05 05:33N 33°54' W 118°28'1 1.4
2017-Mar-05 04:33N 33°55' W 118°27'0 0.0
2017-Mar-05 03:33N 33°55' W 118°27'0 0.0
2017-Mar-05 02:33N 33°55' W 118°27'0 0.0
2017-Mar-05 01:21N 33°55' W 118°27'0 0.0
2017-Mar-05 00:33N 33°55' W 118°27'0 0.0
2017-Mar-04 23:33N 33°55' W 118°27'0 0.0
2017-Mar-04 22:03N 33°55' W 118°27'0 0.0
2017-Mar-04 21:33N 33°55' W 118°27'0 0.0
2017-Mar-04 20:33N 33°55' W 118°27'0 0.0
2017-Mar-04 19:33N 33°55' W 118°27'0 0.0
2017-Mar-04 18:33N 33°55' W 118°27'0 0.0
2017-Mar-04 17:33N 33°55' W 118°27'0 0.0
2017-Mar-04 16:33N 33°55' W 118°27'0 0.0
2017-Mar-04 14:27N 33°55' W 118°27'0 0.0
2017-Mar-04 13:27N 33°55' W 118°27'0 0.0
2017-Mar-04 12:33N 33°55' W 118°27'0 0.0
2017-Mar-04 11:33N 33°55' W 118°27'0 0.0
2017-Mar-04 10:33N 33°55' W 118°27'0 0.0
2017-Mar-04 08:33N 33°55' W 118°27'3 0.3
2017-Mar-03 19:17N 33°52' W 118°30'4 4.9
2017-Mar-03 18:33N 33°49' W 118°30'10 9.8
2017-Mar-03 17:34N 33°40' W 118°24'1211.6
2017-Mar-03 16:33N 33°35' W 118°11'1111.4
2017-Mar-03 15:33N 33°25' W 118°05'1212.2
2017-Mar-03 14:34N 33°13' W 118°01'1212.3
2017-Mar-03 13:33N 33°01' W 117°58'1211.8
2017-Mar-03 12:33N 32°51' W 117°51'1211.8
2017-Mar-03 11:33N 32°41' W 117°43'1211.8
2017-Mar-03 10:33N 32°31' W 117°36'1212.1
2017-Mar-03 09:33N 32°19' W 117°32'1110.8
2017-Mar-03 08:33N 32°09' W 117°28'  

Dump ship's entire track history